Time;durP1;ratioP1;P1;durP2;ratioP2;P2;SDS_P1;SDS_P2;PMS_P1;PMS_P2;Temp;Humidity;BMP_temperature;BMP_pressure;BME280_temperature;BME280_humidity;BME280_pressure;Samples;Min_cycle;Max_cycle;Signal;HPM_P1;HPM_P2
2024/01/07 00:01:07;;;;;;;;;;;;;;;;;;5069938;28;19925;-71
2024/01/07 00:03:34;;;;;;;;;;;;;;;;;;5067547;28;19928;-73
2024/01/07 00:06:01;;;;;;;;;;;;;;;;;;5072335;28;19929;-72
2024/01/07 00:08:29;;;;;;;;;;;;;;;;;;5068291;28;19932;-71
2024/01/07 00:10:56;;;;;;;;;;;;;;;;;;5061004;28;20450;-72
2024/01/07 00:13:23;;;;;;;;;;;;;;;;;;5066777;28;20055;-71
2024/01/07 00:15:50;;;;;;;;;;;;;;;;;;5068833;28;19924;-71
2024/01/07 00:18:17;;;;;;;;;;;;;;;;;;5068359;28;20448;-72
2024/01/07 00:20:44;;;;;;;;;;;;;;;;;;5067385;28;19935;-68
2024/01/07 00:23:11;;;;;;;;;;;;;;;;;;5065886;28;19928;-70
2024/01/07 00:25:39;;;;;;;;;;;;;;;;;;5069085;28;19925;-70
2024/01/07 00:28:06;;;;;;;;;;;;;;;;;;5065841;28;20002;-69
2024/01/07 00:30:33;;;;;;;;;;;;;;;;;;5066037;28;20325;-69
2024/01/07 00:33:00;;;;;;;;;;;;;;;;;;5071570;28;20349;-71
2024/01/07 00:35:27;;;;;;;;;;;;;;;;;;5067548;28;19924;-72
2024/01/07 00:37:56;;;;;;;;;;;;;;;;;;5071709;28;19970;-71
2024/01/07 00:40:23;;;;;;;;;;;;;;;;;;5069673;28;19934;-72
2024/01/07 00:42:51;;;;;;;;;;;;;;;;;;5063860;28;19925;-71
2024/01/07 00:45:18;;;;;;;;;;;;;;;;;;5064117;28;20047;-72
2024/01/07 00:47:45;;;;;;;;;;;;;;;;;;5067063;28;20334;-73
2024/01/07 00:50:12;;;;;;;;;;;;;;;;;;5068029;28;19924;-71
2024/01/07 00:52:42;;;;;;;;;;;;;;;;;;5064901;28;19932;-71
2024/01/07 00:55:09;;;;;;;;;;;;;;;;;;5065829;28;19993;-71
2024/01/07 00:57:36;;;;;;;;;;;;;;;;;;5067951;28;19978;-72
2024/01/07 01:00:03;;;;;;;;;;;;;;;;;;5063088;28;19928;-72
2024/01/07 01:02:30;;;;;;;;;;;;;;;;;;5070670;28;19936;-70
2024/01/07 01:04:57;;;;;;;;;;;;;;;;;;5065933;28;19924;-71
2024/01/07 01:07:24;;;;;;;;;;;;;;;;;;5065857;28;19924;-70
2024/01/07 01:09:51;;;;;;;;;;;;;;;;;;5065320;28;19978;-71
2024/01/07 01:12:19;;;;;;;;;;;;;;;;;;5063600;28;19924;-71
2024/01/07 01:14:46;;;;;;;;;;;;;;;;;;5064951;28;19924;-71
2024/01/07 01:17:13;;;;;;;;;;;;;;;;;;5062829;28;19928;-71
2024/01/07 01:19:40;;;;;;;;;;;;;;;;;;5067024;28;20023;-72
2024/01/07 01:22:07;;;;;;;;;;;;;;;;;;5063760;28;19931;-72
2024/01/07 01:24:34;;;;;;;;;;;;;;;;;;5064442;28;20380;-71
2024/01/07 01:27:01;;;;;;;;;;;;;;;;;;5067804;28;19928;-72
2024/01/07 01:29:28;;;;;;;;;;;;;;;;;;5067968;28;19986;-72
2024/01/07 01:31:55;;;;;;;;;;;;;;;;;;5065599;28;19940;-72
2024/01/07 01:34:22;;;;;;;;;;;;;;;;;;5069924;28;19925;-73
2024/01/07 01:36:49;;;;;;;;;;;;;;;;;;5066800;28;19924;-70
2024/01/07 01:39:16;;;;;;;;;;;;;;;;;;5064317;28;19947;-71
2024/01/07 01:41:43;;;;;;;;;;;;;;;;;;5070073;28;19993;-72
2024/01/07 01:44:11;;;;;;;;;;;;;;;;;;5063397;28;19929;-72
2024/01/07 01:46:38;;;;;;;;;;;;;;;;;;5067027;28;19978;-71
2024/01/07 01:49:05;;;;;;;;;;;;;;;;;;5067703;28;19932;-71
2024/01/07 01:51:32;;;;;;;;;;;;;;;;;;5059701;28;19924;-72
2024/01/07 01:54:00;;;;;;;;;;;;;;;;;;5067542;28;19924;-73
2024/01/07 01:56:27;;;;;;;;;;;;;;;;;;5066500;28;19971;-71
2024/01/07 01:58:54;;;;;;;;;;;;;;;;;;5061059;28;19925;-70
2024/01/07 02:01:21;;;;;;;;;;;;;;;;;;5065927;28;20556;-70
2024/01/07 02:03:48;;;;;;;;;;;;;;;;;;5068809;28;19994;-71
2024/01/07 02:06:15;;;;;;;;;;;;;;;;;;5066857;28;19939;-71
2024/01/07 02:08:43;;;;;;;;;;;;;;;;;;5064592;28;19925;-71
2024/01/07 02:11:10;;;;;;;;;;;;;;;;;;5066406;28;19928;-71
2024/01/07 02:13:37;;;;;;;;;;;;;;;;;;5064195;28;19966;-71
2024/01/07 02:16:04;;;;;;;;;;;;;;;;;;5061780;28;19928;-71
2024/01/07 02:18:31;;;;;;;;;;;;;;;;;;5064100;28;20403;-71
2024/01/07 02:20:58;;;;;;;;;;;;;;;;;;5063012;28;19959;-70
2024/01/07 02:23:25;;;;;;;;;;;;;;;;;;5063716;28;19924;-70
2024/01/07 02:25:52;;;;;;;;;;;;;;;;;;5065918;28;19978;-70
2024/01/07 02:28:19;;;;;;;;;;;;;;;;;;5066732;28;20380;-71
2024/01/07 02:30:46;;;;;;;;;;;;;;;;;;5070796;28;19928;-71
2024/01/07 02:33:13;;;;;;;;;;;;;;;;;;5067601;28;19932;-71
2024/01/07 02:35:41;;;;;;;;;;;;;;;;;;5066843;28;19932;-70
2024/01/07 02:38:08;;;;;;;;;;;;;;;;;;5073086;28;19925;-71
2024/01/07 02:40:35;;;;;;;;;;;;;;;;;;5074311;28;19936;-70
2024/01/07 02:43:02;;;;;;;;;;;;;;;;;;5061519;28;20306;-71
2024/01/07 02:45:29;;;;;;;;;;;;;;;;;;5069083;28;19925;-70
2024/01/07 02:47:56;;;;;;;;;;;;;;;;;;5068089;28;19936;-70
2024/01/07 02:50:23;;;;;;;;;;;;;;;;;;5064972;28;19925;-70
2024/01/07 02:52:50;;;;;;;;;;;;;;;;;;5065261;28;19970;-71
2024/01/07 02:55:17;;;;;;;;;;;;;;;;;;5068249;28;20401;-70
2024/01/07 02:57:44;;;;;;;;;;;;;;;;;;5067516;28;19940;-71
2024/01/07 03:00:11;;;;;;;;;;;;;;;;;;5066572;28;19929;-71
2024/01/07 03:02:38;;;;;;;;;;;;;;;;;;5065955;28;20334;-72
2024/01/07 03:05:06;;;;;;;;;;;;;;;;;;5070485;28;19924;-71
2024/01/07 03:07:33;;;;;;;;;;;;;;;;;;5069352;28;19924;-69
2024/01/07 03:10:00;;;;;;;;;;;;;;;;;;5066476;28;19925;-70
2024/01/07 03:12:27;;;;;;;;;;;;;;;;;;5060582;28;19924;-69
2024/01/07 03:14:54;;;;;;;;;;;;;;;;;;5066306;28;19928;-70
2024/01/07 03:17:22;;;;;;;;;;;;;;;;;;5071703;28;20322;-70
2024/01/07 03:19:49;;;;;;;;;;;;;;;;;;5067254;28;19931;-71
2024/01/07 03:22:16;;;;;;;;;;;;;;;;;;5067594;28;19970;-71
2024/01/07 03:24:43;;;;;;;;;;;;;;;;;;5070779;28;20292;-71
2024/01/07 03:27:10;;;;;;;;;;;;;;;;;;5069440;28;19924;-71
2024/01/07 03:29:37;;;;;;;;;;;;;;;;;;5070418;28;19925;-69
2024/01/07 03:32:04;;;;;;;;;;;;;;;;;;5067639;28;19924;-70
2024/01/07 03:34:31;;;;;;;;;;;;;;;;;;5065414;28;19970;-70
2024/01/07 03:36:59;;;;;;;;;;;;;;;;;;5068189;28;19928;-70
2024/01/07 03:39:26;;;;;;;;;;;;;;;;;;5066445;28;20014;-70
2024/01/07 03:41:53;;;;;;;;;;;;;;;;;;5066859;28;19938;-70
2024/01/07 03:44:20;;;;;;;;;;;;;;;;;;5064994;28;19999;-70
2024/01/07 03:46:47;;;;;;;;;;;;;;;;;;5066346;28;19924;-70
2024/01/07 03:49:14;;;;;;;;;;;;;;;;;;5068358;28;20407;-70
2024/01/07 03:51:41;;;;;;;;;;;;;;;;;;5066772;28;19925;-71
2024/01/07 03:54:08;;;;;;;;;;;;;;;;;;5066128;28;19932;-70
2024/01/07 03:56:35;;;;;;;;;;;;;;;;;;5067676;28;20346;-70
2024/01/07 03:59:02;;;;;;;;;;;;;;;;;;5066856;28;19946;-70
2024/01/07 04:01:29;;;;;;;;;;;;;;;;;;5066983;28;19994;-71
2024/01/07 04:03:56;;;;;;;;;;;;;;;;;;5063032;28;19943;-71
2024/01/07 04:06:24;;;;;;;;;;;;;;;;;;5058266;28;19925;-70
2024/01/07 04:08:51;;;;;;;;;;;;;;;;;;5066025;28;19932;-70
2024/01/07 04:11:18;;;;;;;;;;;;;;;;;;5066881;28;20338;-70
2024/01/07 04:13:45;;;;;;;;;;;;;;;;;;5063173;28;19929;-70
2024/01/07 04:16:12;;;;;;;;;;;;;;;;;;5059902;28;19924;-70
2024/01/07 04:18:39;;;;;;;;;;;;;;;;;;5063585;28;20249;-70
2024/01/07 04:21:06;;;;;;;;;;;;;;;;;;5060225;28;19932;-69
2024/01/07 04:23:33;;;;;;;;;;;;;;;;;;5057611;28;19924;-70
2024/01/07 04:26:00;;;;;;;;;;;;;;;;;;5063159;28;20376;-71
2024/01/07 04:28:27;;;;;;;;;;;;;;;;;;5060144;28;19924;-70
2024/01/07 04:30:54;;;;;;;;;;;;;;;;;;5062718;28;20023;-70
2024/01/07 04:33:22;;;;;;;;;;;;;;;;;;5063614;28;19932;-69
2024/01/07 04:35:49;;;;;;;;;;;;;;;;;;5064268;28;20671;-70
2024/01/07 04:38:16;;;;;;;;;;;;;;;;;;5069171;28;20433;-71
2024/01/07 04:40:43;;;;;;;;;;;;;;;;;;5069840;28;19995;-70
2024/01/07 04:43:10;;;;;;;;;;;;;;;;;;5063610;28;19924;-70
2024/01/07 04:45:37;;;;;;;;;;;;;;;;;;5064486;28;20302;-70
2024/01/07 04:48:04;;;;;;;;;;;;;;;;;;5064472;28;20353;-70
2024/01/07 04:50:31;;;;;;;;;;;;;;;;;;5064791;28;20375;-70
2024/01/07 04:52:58;;;;;;;;;;;;;;;;;;5068829;28;19924;-71
2024/01/07 04:55:25;;;;;;;;;;;;;;;;;;5066584;28;19928;-70
2024/01/07 04:57:52;;;;;;;;;;;;;;;;;;5064196;28;19931;-70
2024/01/07 05:00:19;;;;;;;;;;;;;;;;;;5064185;28;19990;-70
2024/01/07 05:02:47;;;;;;;;;;;;;;;;;;5063928;28;19962;-71
2024/01/07 05:05:14;;;;;;;;;;;;;;;;;;5064913;28;19925;-70
2024/01/07 05:07:41;;;;;;;;;;;;;;;;;;5063208;28;19932;-70
2024/01/07 05:10:08;;;;;;;;;;;;;;;;;;5063178;28;19924;-70
2024/01/07 05:12:36;;;;;;;;;;;;;;;;;;5063211;28;19978;-69
2024/01/07 05:15:03;;;;;;;;;;;;;;;;;;5063076;28;19930;-69
2024/01/07 05:17:30;;;;;;;;;;;;;;;;;;5060627;28;19925;-70
2024/01/07 05:19:57;;;;;;;;;;;;;;;;;;5067108;28;19925;-69
2024/01/07 05:22:24;;;;;;;;;;;;;;;;;;5064746;28;19924;-70
2024/01/07 05:24:51;;;;;;;;;;;;;;;;;;5066469;28;19924;-70
2024/01/07 05:27:18;;;;;;;;;;;;;;;;;;5065623;28;20101;-70
2024/01/07 05:29:45;;;;;;;;;;;;;;;;;;5063222;28;20002;-71
2024/01/07 05:32:12;;;;;;;;;;;;;;;;;;5064162;28;20286;-70
2024/01/07 05:34:39;;;;;;;;;;;;;;;;;;5063077;28;20007;-69
2024/01/07 05:37:06;;;;;;;;;;;;;;;;;;5068487;28;19928;-70
2024/01/07 05:39:33;;;;;;;;;;;;;;;;;;5065155;28;19924;-69
2024/01/07 05:42:00;;;;;;;;;;;;;;;;;;5063833;28;20013;-69
2024/01/07 05:44:27;;;;;;;;;;;;;;;;;;5063792;28;19932;-70
2024/01/07 05:46:54;;;;;;;;;;;;;;;;;;5065795;28;19989;-69
2024/01/07 05:49:21;;;;;;;;;;;;;;;;;;5064006;28;19925;-69
2024/01/07 05:51:48;;;;;;;;;;;;;;;;;;5062787;28;19989;-68
2024/01/07 05:54:16;;;;;;;;;;;;;;;;;;5062607;28;19989;-69
2024/01/07 05:56:43;;;;;;;;;;;;;;;;;;5064660;28;19960;-69
2024/01/07 05:59:10;;;;;;;;;;;;;;;;;;5062848;28;19978;-68
2024/01/07 06:01:37;;;;;;;;;;;;;;;;;;5059709;28;20395;-69
2024/01/07 06:04:04;;;;;;;;;;;;;;;;;;5060596;28;21855;-69
2024/01/07 06:06:31;;;;;;;;;;;;;;;;;;5065379;28;20524;-69
2024/01/07 06:08:58;;;;;;;;;;;;;;;;;;5062618;28;19958;-69
2024/01/07 06:11:25;;;;;;;;;;;;;;;;;;5059921;28;19933;-69
2024/01/07 06:13:53;;;;;;;;;;;;;;;;;;5062489;28;20006;-69
2024/01/07 06:16:20;;;;;;;;;;;;;;;;;;5062223;28;19968;-68
2024/01/07 06:18:47;;;;;;;;;;;;;;;;;;5063144;28;19939;-68
2024/01/07 06:21:14;;;;;;;;;;;;;;;;;;5061924;28;20383;-69
2024/01/07 06:23:41;;;;;;;;;;;;;;;;;;5064475;28;20324;-69
2024/01/07 06:26:08;;;;;;;;;;;;;;;;;;5061822;28;20508;-69
2024/01/07 06:28:35;;;;;;;;;;;;;;;;;;5062939;28;20039;-69
2024/01/07 06:31:02;;;;;;;;;;;;;;;;;;5060922;28;19932;-70
2024/01/07 06:33:29;;;;;;;;;;;;;;;;;;5061892;28;19925;-69
2024/01/07 06:35:56;;;;;;;;;;;;;;;;;;5067230;28;19928;-68
2024/01/07 06:38:23;;;;;;;;;;;;;;;;;;5063708;28;19925;-68
2024/01/07 06:40:51;;;;;;;;;;;;;;;;;;5059768;28;19925;-68
2024/01/07 06:43:18;;;;;;;;;;;;;;;;;;5064350;28;19928;-68
2024/01/07 06:45:45;;;;;;;;;;;;;;;;;;5064854;28;20391;-69
2024/01/07 06:48:12;;;;;;;;;;;;;;;;;;5072074;28;20474;-68
2024/01/07 06:50:39;;;;;;;;;;;;;;;;;;5070809;28;19924;-68
2024/01/07 06:53:06;;;;;;;;;;;;;;;;;;5069898;28;19983;-68
2024/01/07 06:55:33;;;;;;;;;;;;;;;;;;5070924;28;19928;-68
2024/01/07 06:58:00;;;;;;;;;;;;;;;;;;5067950;28;20338;-69
2024/01/07 07:00:27;;;;;;;;;;;;;;;;;;5069549;28;20444;-69
2024/01/07 07:02:54;;;;;;;;;;;;;;;;;;5063221;28;19924;-69
2024/01/07 07:05:21;;;;;;;;;;;;;;;;;;5064955;28;19925;-69
2024/01/07 07:07:49;;;;;;;;;;;;;;;;;;5066890;28;19925;-70
2024/01/07 07:10:16;;;;;;;;;;;;;;;;;;5064564;28;20456;-69
2024/01/07 07:12:43;;;;;;;;;;;;;;;;;;5065690;28;19969;-69
2024/01/07 07:15:10;;;;;;;;;;;;;;;;;;5063697;28;19978;-70
2024/01/07 07:17:37;;;;;;;;;;;;;;;;;;5067175;28;20000;-69
2024/01/07 07:20:04;;;;;;;;;;;;;;;;;;5067683;28;19928;-69
2024/01/07 07:22:31;;;;;;;;;;;;;;;;;;5065345;28;19925;-69
2024/01/07 07:24:59;;;;;;;;;;;;;;;;;;5068940;28;20828;-69
2024/01/07 07:27:26;;;;;;;;;;;;;;;;;;5067224;28;19924;-68
2024/01/07 07:29:53;;;;;;;;;;;;;;;;;;5071606;28;20548;-69
2024/01/07 07:32:20;;;;;;;;;;;;;;;;;;5066101;28;20010;-68
2024/01/07 07:34:48;;;;;;;;;;;;;;;;;;5065729;28;19938;-70
2024/01/07 07:37:15;;;;;;;;;;;;;;;;;;5066224;28;20019;-70
2024/01/07 07:39:42;;;;;;;;;;;;;;;;;;5070576;28;19932;-71
2024/01/07 07:42:10;;;;;;;;;;;;;;;;;;5068300;28;19962;-72
2024/01/07 07:44:39;;;;;;;;;;;;;;;;;;5067973;28;20446;-71
2024/01/07 07:47:06;;;;;;;;;;;;;;;;;;5066728;28;19947;-71
2024/01/07 07:49:33;;;;;;;;;;;;;;;;;;5065779;28;19924;-71
2024/01/07 07:52:00;;;;;;;;;;;;;;;;;;5065322;28;19990;-71
2024/01/07 07:54:27;;;;;;;;;;;;;;;;;;5069056;28;20389;-70
2024/01/07 07:56:54;;;;;;;;;;;;;;;;;;5067754;28;19963;-70
2024/01/07 07:59:21;;;;;;;;;;;;;;;;;;5071503;28;19931;-70
2024/01/07 08:01:49;;;;;;;;;;;;;;;;;;5073050;28;19929;-70
2024/01/07 08:04:16;;;;;;;;;;;;;;;;;;5063940;28;19952;-71
2024/01/07 08:06:44;;;;;;;;;;;;;;;;;;5067388;28;19928;-71
2024/01/07 08:09:12;;;;;;;;;;;;;;;;;;5068161;28;19924;-71
2024/01/07 08:11:39;;;;;;;;;;;;;;;;;;5065418;28;19924;-71
2024/01/07 08:14:06;;;;;;;;;;;;;;;;;;5065841;28;19936;-70
2024/01/07 08:16:34;;;;;;;;;;;;;;;;;;5067042;28;20391;-71
2024/01/07 08:19:01;;;;;;;;;;;;;;;;;;5066351;28;19925;-70
2024/01/07 08:21:28;;;;;;;;;;;;;;;;;;5071662;28;20017;-71
2024/01/07 08:23:55;;;;;;;;;;;;;;;;;;5063797;28;20058;-71
2024/01/07 08:26:22;;;;;;;;;;;;;;;;;;5066838;28;19928;-70
2024/01/07 08:28:50;;;;;;;;;;;;;;;;;;5065014;28;19929;-70
2024/01/07 08:31:17;;;;;;;;;;;;;;;;;;5072923;28;19936;-68
2024/01/07 08:33:43;;;;;;;;;;;;;;;;;;5065508;28;19925;-69
2024/01/07 08:36:10;;;;;;;;;;;;;;;;;;5070067;28;20005;-70
2024/01/07 08:38:37;;;;;;;;;;;;;;;;;;5064952;28;19964;-70
2024/01/07 08:41:04;;;;;;;;;;;;;;;;;;5072445;28;19925;-70
2024/01/07 08:43:31;;;;;;;;;;;;;;;;;;5067995;28;19930;-70
2024/01/07 08:45:58;;;;;;;;;;;;;;;;;;5064930;28;20368;-69
2024/01/07 08:48:26;;;;;;;;;;;;;;;;;;5067712;28;19994;-69
2024/01/07 08:50:53;;;;;;;;;;;;;;;;;;5063651;28;19986;-69
2024/01/07 08:53:22;;;;;;;;;;;;;;;;;;5067807;28;19972;-70
2024/01/07 08:55:49;;;;;;;;;;;;;;;;;;5069759;28;19935;-70
2024/01/07 08:58:16;;;;;;;;;;;;;;;;;;5068033;28;19933;-69
2024/01/07 09:00:43;;;;;;;;;;;;;;;;;;5059519;28;19932;-69
2024/01/07 09:03:10;;;;;;;;;;;;;;;;;;5063797;28;20021;-70
2024/01/07 09:05:38;;;;;;;;;;;;;;;;;;5062907;28;20025;-69
2024/01/07 09:08:06;;;;;;;;;;;;;;;;;;5066469;28;19924;-68
2024/01/07 09:10:33;;;;;;;;;;;;;;;;;;5060746;28;19939;-70
2024/01/07 09:13:00;;;;;;;;;;;;;;;;;;5062065;28;20368;-70
2024/01/07 09:15:27;;;;;;;;;;;;;;;;;;5065223;28;19928;-71
2024/01/07 09:17:54;;;;;;;;;;;;;;;;;;5069449;28;19970;-70
2024/01/07 09:20:21;;;;;;;;;;;;;;;;;;5065650;28;19990;-70
2024/01/07 09:22:52;;;;;;;;;;;;;;;;;;5061555;28;19928;-70
2024/01/07 09:25:19;;;;;;;;;;;;;;;;;;5063073;28;19924;-70
2024/01/07 09:27:46;;;;;;;;;;;;;;;;;;5063500;28;19925;-69
2024/01/07 09:30:14;;;;;;;;;;;;;;;;;;5062723;28;19925;-69
2024/01/07 09:32:41;;;;;;;;;;;;;;;;;;5063450;28;19947;-70
2024/01/07 09:35:08;;;;;;;;;;;;;;;;;;5068440;28;19934;-70
2024/01/07 09:37:36;;;;;;;;;;;;;;;;;;5061618;28;19933;-68
2024/01/07 09:40:05;;;;;;;;;;;;;;;;;;5068559;28;19951;-68
2024/01/07 09:42:32;;;;;;;;;;;;;;;;;;5071140;28;20359;-68
2024/01/07 09:44:59;;;;;;;;;;;;;;;;;;5065967;28;19924;-69
2024/01/07 09:47:26;;;;;;;;;;;;;;;;;;5068284;28;20376;-68
2024/01/07 09:49:53;;;;;;;;;;;;;;;;;;5062470;28;20268;-69
2024/01/07 09:52:21;;;;;;;;;;;;;;;;;;5060011;28;19970;-69
2024/01/07 09:54:52;;;;;;;;;;;;;;;;;;5064931;28;20015;-69
2024/01/07 09:57:19;;;;;;;;;;;;;;;;;;5064570;28;19924;-68
2024/01/07 09:59:46;;;;;;;;;;;;;;;;;;5067226;28;19932;-67
2024/01/07 10:02:13;;;;;;;;;;;;;;;;;;5063092;28;20506;-68
2024/01/07 10:04:40;;;;;;;;;;;;;;;;;;5054877;28;19928;-69
2024/01/07 10:07:07;;;;;;;;;;;;;;;;;;5062341;28;19952;-68
2024/01/07 10:09:34;;;;;;;;;;;;;;;;;;5064340;28;19925;-68
2024/01/07 10:12:02;;;;;;;;;;;;;;;;;;5076219;28;19970;-68
2024/01/07 10:14:29;;;;;;;;;;;;;;;;;;5062348;28;19924;-68
2024/01/07 10:16:56;;;;;;;;;;;;;;;;;;5069691;28;19924;-68
2024/01/07 10:19:23;;;;;;;;;;;;;;;;;;5060871;28;19935;-69
2024/01/07 10:21:50;;;;;;;;;;;;;;;;;;5057206;28;20050;-68
2024/01/07 10:24:17;;;;;;;;;;;;;;;;;;5063002;28;19951;-67
2024/01/07 10:26:45;;;;;;;;;;;;;;;;;;5065466;28;19932;-67
2024/01/07 10:29:12;;;;;;;;;;;;;;;;;;5070874;28;19928;-69
2024/01/07 10:31:39;;;;;;;;;;;;;;;;;;5067188;28;19971;-68
2024/01/07 10:34:06;;;;;;;;;;;;;;;;;;5085792;28;19928;-67
2024/01/07 10:36:33;;;;;;;;;;;;;;;;;;5068135;28;20357;-69
2024/01/07 10:39:00;;;;;;;;;;;;;;;;;;5058656;28;20388;-68
2024/01/07 10:41:29;;;;;;;;;;;;;;;;;;5078744;28;19985;-67
2024/01/07 10:43:57;;;;;;;;;;;;;;;;;;5072951;28;19932;-67
2024/01/07 10:46:26;;;;;;;;;;;;;;;;;;5074155;28;19924;-68
2024/01/07 10:48:53;;;;;;;;;;;;;;;;;;5086491;28;19925;-67
2024/01/07 10:51:20;;;;;;;;;;;;;;;;;;5072471;28;19970;-68
2024/01/07 10:53:47;;;;;;;;;;;;;;;;;;5082146;28;19932;-68
2024/01/07 10:56:15;;;;;;;;;;;;;;;;;;5068530;28;19925;-69
2024/01/07 10:58:42;;;;;;;;;;;;;;;;;;5064941;28;20536;-67
2024/01/07 11:01:09;;;;;;;;;;;;;;;;;;5070868;28;19928;-68
2024/01/07 11:03:36;;;;;;;;;;;;;;;;;;5071015;28;19925;-69
2024/01/07 11:06:03;;;;;;;;;;;;;;;;;;5060844;28;19925;-67
2024/01/07 11:08:30;;;;;;;;;;;;;;;;;;5075054;28;19990;-67
2024/01/07 11:10:58;;;;;;;;;;;;;;;;;;5060768;28;20739;-67
2024/01/07 11:13:25;;;;;;;;;;;;;;;;;;5061583;28;19932;-67
2024/01/07 11:15:56;;;;;;;;;;;;;;;;;;5067011;28;20006;-68
2024/01/07 11:18:23;;;;;;;;;;;;;;;;;;5070823;28;19924;-67
2024/01/07 11:20:50;;;;;;;;;;;;;;;;;;5070651;28;19936;-68
2024/01/07 11:23:17;;;;;;;;;;;;;;;;;;5074440;28;19932;-68
2024/01/07 11:25:44;;;;;;;;;;;;;;;;;;5076692;28;19993;-68
2024/01/07 11:28:11;;;;;;;;;;;;;;;;;;5073737;28;19924;-69
2024/01/07 11:30:38;;;;;;;;;;;;;;;;;;5063805;28;19925;-69
2024/01/07 11:33:05;;;;;;;;;;;;;;;;;;5064008;28;19932;-68
2024/01/07 11:35:32;;;;;;;;;;;;;;;;;;5066520;28;19994;-68
2024/01/07 11:37:59;;;;;;;;;;;;;;;;;;5070156;28;20392;-68
2024/01/07 11:40:27;;;;;;;;;;;;;;;;;;5068523;28;19957;-68
2024/01/07 11:42:54;;;;;;;;;;;;;;;;;;5071136;28;19964;-68
2024/01/07 11:45:22;;;;;;;;;;;;;;;;;;5061395;28;19924;-68
2024/01/07 11:47:49;;;;;;;;;;;;;;;;;;5058031;28;19983;-68
2024/01/07 11:50:16;;;;;;;;;;;;;;;;;;5062878;28;19964;-68
2024/01/07 11:52:42;;;;;;;;;;;;;;;;;;5071694;28;19928;-69
2024/01/07 11:55:10;;;;;;;;;;;;;;;;;;5065900;28;20535;-68
2024/01/07 11:57:37;;;;;;;;;;;;;;;;;;5063516;28;19931;-68
2024/01/07 12:00:04;;;;;;;;;;;;;;;;;;5062112;28;19986;-68
2024/01/07 12:02:32;;;;;;;;;;;;;;;;;;5061553;28;20519;-68
2024/01/07 12:04:59;;;;;;;;;;;;;;;;;;5065537;28;20379;-69
2024/01/07 12:07:26;;;;;;;;;;;;;;;;;;5067667;28;19925;-69
2024/01/07 12:09:53;;;;;;;;;;;;;;;;;;5064257;28;19969;-69
2024/01/07 12:12:20;;;;;;;;;;;;;;;;;;5061518;28;20394;-69
2024/01/07 12:14:48;;;;;;;;;;;;;;;;;;5063567;28;19925;-69
2024/01/07 12:17:15;;;;;;;;;;;;;;;;;;5070914;28;20020;-69
2024/01/07 12:19:42;;;;;;;;;;;;;;;;;;5061701;28;19932;-70
2024/01/07 12:22:09;;;;;;;;;;;;;;;;;;5058969;28;20032;-68
2024/01/07 12:24:36;;;;;;;;;;;;;;;;;;5072298;28;19951;-69
2024/01/07 12:27:03;;;;;;;;;;;;;;;;;;5068880;28;19928;-66
2024/01/07 12:29:30;;;;;;;;;;;;;;;;;;5064417;28;19924;-68
2024/01/07 12:31:57;;;;;;;;;;;;;;;;;;5064503;28;19994;-67
2024/01/07 12:34:24;;;;;;;;;;;;;;;;;;5070242;28;20310;-69
2024/01/07 12:36:51;;;;;;;;;;;;;;;;;;5073252;28;19924;-68
2024/01/07 12:39:19;;;;;;;;;;;;;;;;;;5064143;28;19929;-68
2024/01/07 12:41:47;;;;;;;;;;;;;;;;;;5061208;28;19933;-68
2024/01/07 12:44:14;;;;;;;;;;;;;;;;;;5068886;28;19964;-68
2024/01/07 12:46:41;;;;;;;;;;;;;;;;;;5064465;28;19924;-69
2024/01/07 12:49:08;;;;;;;;;;;;;;;;;;5067639;28;19953;-67
2024/01/07 12:51:35;;;;;;;;;;;;;;;;;;5074436;28;19924;-68
2024/01/07 12:54:03;;;;;;;;;;;;;;;;;;5065309;28;19924;-68
2024/01/07 12:56:31;;;;;;;;;;;;;;;;;;5068463;28;20020;-71
2024/01/07 12:58:58;;;;;;;;;;;;;;;;;;5066783;28;19931;-67
2024/01/07 13:01:25;;;;;;;;;;;;;;;;;;5074381;28;19978;-69
2024/01/07 13:03:52;;;;;;;;;;;;;;;;;;5074481;28;19933;-70
2024/01/07 13:06:19;;;;;;;;;;;;;;;;;;5066990;28;19998;-69
2024/01/07 13:08:46;;;;;;;;;;;;;;;;;;5064971;28;19932;-68
2024/01/07 13:11:16;;;;;;;;;;;;;;;;;;5058839;28;19932;-69
2024/01/07 13:13:43;;;;;;;;;;;;;;;;;;5058867;28;19925;-68
2024/01/07 13:16:11;;;;;;;;;;;;;;;;;;5070502;28;19931;-67
2024/01/07 13:18:38;;;;;;;;;;;;;;;;;;5066441;28;20375;-67
2024/01/07 13:21:06;;;;;;;;;;;;;;;;;;5067677;28;20069;-67
2024/01/07 13:23:33;;;;;;;;;;;;;;;;;;5066642;28;20025;-67
2024/01/07 13:26:02;;;;;;;;;;;;;;;;;;5057665;28;19968;-67
2024/01/07 13:28:29;;;;;;;;;;;;;;;;;;5070307;28;19972;-68
2024/01/07 13:30:56;;;;;;;;;;;;;;;;;;5069619;28;19932;-67
2024/01/07 13:33:24;;;;;;;;;;;;;;;;;;5062350;28;19996;-68
2024/01/07 13:35:51;;;;;;;;;;;;;;;;;;5060749;28;20011;-68
2024/01/07 13:38:18;;;;;;;;;;;;;;;;;;5060701;28;19925;-69
2024/01/07 13:40:45;;;;;;;;;;;;;;;;;;5061056;28;19980;-68
2024/01/07 13:43:12;;;;;;;;;;;;;;;;;;5057385;28;19975;-68
2024/01/07 13:45:40;;;;;;;;;;;;;;;;;;5068066;28;19954;-68
2024/01/07 13:48:08;;;;;;;;;;;;;;;;;;5076395;28;19940;-67
2024/01/07 13:50:35;;;;;;;;;;;;;;;;;;5062044;28;19924;-67
2024/01/07 13:53:02;;;;;;;;;;;;;;;;;;5053510;28;19924;-67
2024/01/07 13:55:29;;;;;;;;;;;;;;;;;;5055365;28;19980;-67
2024/01/07 13:57:56;;;;;;;;;;;;;;;;;;5072315;28;19925;-68
2024/01/07 14:00:28;;;;;;;;;;;;;;;;;;5071778;28;19924;-68
2024/01/07 14:02:55;;;;;;;;;;;;;;;;;;5080741;28;19932;-68
2024/01/07 14:05:22;;;;;;;;;;;;;;;;;;5062702;28;19928;-68
2024/01/07 14:07:49;;;;;;;;;;;;;;;;;;5059570;28;19950;-67
2024/01/07 14:10:20;;;;;;;;;;;;;;;;;;5054045;28;19939;-68
2024/01/07 14:12:47;;;;;;;;;;;;;;;;;;5051253;28;19959;-66
2024/01/07 14:15:14;;;;;;;;;;;;;;;;;;5051211;28;19955;-67
2024/01/07 14:17:42;;;;;;;;;;;;;;;;;;5049459;28;20468;-68
2024/01/07 14:20:09;;;;;;;;;;;;;;;;;;5045035;28;20055;-67
2024/01/07 14:22:36;;;;;;;;;;;;;;;;;;5047675;28;19936;-67
2024/01/07 14:25:04;;;;;;;;;;;;;;;;;;5051020;28;19928;-68
2024/01/07 14:27:31;;;;;;;;;;;;;;;;;;5049223;28;19932;-68
2024/01/07 14:29:58;;;;;;;;;;;;;;;;;;5047460;28;19925;-68
2024/01/07 14:32:25;;;;;;;;;;;;;;;;;;5057970;28;19979;-68
2024/01/07 14:34:52;;;;;;;;;;;;;;;;;;5057812;28;19950;-68
2024/01/07 14:37:20;;;;;;;;;;;;;;;;;;5056695;28;20020;-68
2024/01/07 14:39:47;;;;;;;;;;;;;;;;;;5046475;28;19983;-68
2024/01/07 14:42:14;;;;;;;;;;;;;;;;;;5053372;28;20461;-68
2024/01/07 14:44:41;;;;;;;;;;;;;;;;;;5056969;28;19932;-68
2024/01/07 14:47:08;;;;;;;;;;;;;;;;;;5051818;28;19970;-68
2024/01/07 14:49:35;;;;;;;;;;;;;;;;;;5056251;28;20500;-68
2024/01/07 14:52:02;;;;;;;;;;;;;;;;;;5052965;28;19924;-68
2024/01/07 14:54:31;;;;;;;;;;;;;;;;;;5055327;28;20409;-68
2024/01/07 14:56:58;;;;;;;;;;;;;;;;;;5070510;28;19928;-68
2024/01/07 14:59:26;;;;;;;;;;;;;;;;;;5063811;28;19924;-68
2024/01/07 15:01:53;;;;;;;;;;;;;;;;;;5066531;28;19982;-67
2024/01/07 15:04:20;;;;;;;;;;;;;;;;;;5061956;28;19929;-67
2024/01/07 15:06:49;;;;;;;;;;;;;;;;;;5059673;28;20682;-67
2024/01/07 15:09:16;;;;;;;;;;;;;;;;;;5062133;28;19986;-67
2024/01/07 15:11:44;;;;;;;;;;;;;;;;;;5068739;28;19924;-67
2024/01/07 15:14:12;;;;;;;;;;;;;;;;;;5064000;28;19925;-67
2024/01/07 15:16:39;;;;;;;;;;;;;;;;;;5062422;28;19993;-69
2024/01/07 15:19:06;;;;;;;;;;;;;;;;;;5060962;28;19924;-67
2024/01/07 15:21:33;;;;;;;;;;;;;;;;;;5058676;28;19993;-67
2024/01/07 15:24:00;;;;;;;;;;;;;;;;;;5056999;28;20044;-68
2024/01/07 15:26:27;;;;;;;;;;;;;;;;;;5062073;28;19955;-68
2024/01/07 15:28:54;;;;;;;;;;;;;;;;;;5062051;28;20323;-67
2024/01/07 15:31:21;;;;;;;;;;;;;;;;;;5061560;28;20456;-67
2024/01/07 15:33:48;;;;;;;;;;;;;;;;;;5070212;28;19949;-67
2024/01/07 15:36:15;;;;;;;;;;;;;;;;;;5081939;28;19923;-67
2024/01/07 15:38:42;;;;;;;;;;;;;;;;;;5083320;28;19961;-67
2024/01/07 15:41:09;;;;;;;;;;;;;;;;;;5085757;28;19972;-67
2024/01/07 15:43:37;;;;;;;;;;;;;;;;;;5083183;28;19931;-67
2024/01/07 15:46:04;;;;;;;;;;;;;;;;;;5090982;28;19964;-67
2024/01/07 15:48:31;;;;;;;;;;;;;;;;;;5079193;28;19924;-67
2024/01/07 15:50:59;;;;;;;;;;;;;;;;;;5089727;28;19924;-67
2024/01/07 15:53:31;;;;;;;;;;;;;;;;;;5072718;28;19970;-68
2024/01/07 15:55:58;;;;;;;;;;;;;;;;;;5088625;28;20004;-67
2024/01/07 15:58:30;;;;;;;;;;;;;;;;;;5077480;28;20365;-68
2024/01/07 16:00:57;;;;;;;;;;;;;;;;;;5086807;28;20023;-67
2024/01/07 16:03:25;;;;;;;;;;;;;;;;;;5089492;28;19924;-67
2024/01/07 16:05:52;;;;;;;;;;;;;;;;;;5075050;28;20035;-67
2024/01/07 16:08:19;;;;;;;;;;;;;;;;;;5085233;28;20376;-67
2024/01/07 16:10:46;;;;;;;;;;;;;;;;;;5079251;28;19947;-67
2024/01/07 16:13:13;;;;;;;;;;;;;;;;;;5078276;28;19924;-67
2024/01/07 16:15:40;;;;;;;;;;;;;;;;;;5074050;28;19978;-68
2024/01/07 16:18:08;;;;;;;;;;;;;;;;;;5089590;28;19924;-67
2024/01/07 16:20:35;;;;;;;;;;;;;;;;;;5086747;28;19928;-67
2024/01/07 16:23:02;;;;;;;;;;;;;;;;;;5083092;28;19959;-67
2024/01/07 16:25:29;;;;;;;;;;;;;;;;;;5081576;28;19928;-67
2024/01/07 16:27:56;;;;;;;;;;;;;;;;;;5065136;28;19986;-69
2024/01/07 16:30:23;;;;;;;;;;;;;;;;;;5088515;28;19924;-67
2024/01/07 16:32:50;;;;;;;;;;;;;;;;;;5090101;28;19924;-67
2024/01/07 16:35:17;;;;;;;;;;;;;;;;;;5090786;28;19924;-67
2024/01/07 16:37:44;;;;;;;;;;;;;;;;;;5073230;28;19924;-67
2024/01/07 16:40:11;;;;;;;;;;;;;;;;;;5093217;28;19967;-67
2024/01/07 16:42:38;;;;;;;;;;;;;;;;;;5072671;28;19925;-68
2024/01/07 16:45:08;;;;;;;;;;;;;;;;;;5080576;28;19924;-68